sensor_id;sensor_type;location;lat;lon;timestamp;temperature;humidity
52725;DHT22;38621;52.830;6.914;2023-05-17T00:01:43;8.90;99.90
52725;DHT22;38621;52.830;6.914;2023-05-17T00:04:09;9.00;99.90
52725;DHT22;38621;52.830;6.914;2023-05-17T00:06:35;9.00;99.90
52725;DHT22;38621;52.830;6.914;2023-05-17T00:09:01;9.00;99.90
52725;DHT22;38621;52.830;6.914;2023-05-17T00:11:27;9.10;99.90
52725;DHT22;38621;52.830;6.914;2023-05-17T00:13:52;9.20;99.90
52725;DHT22;38621;52.830;6.914;2023-05-17T00:16:18;9.20;99.90
52725;DHT22;38621;52.830;6.914;2023-05-17T00:18:44;9.20;99.90
52725;DHT22;38621;52.830;6.914;2023-05-17T00:21:10;9.20;99.90
52725;DHT22;38621;52.830;6.914;2023-05-17T00:23:35;9.20;99.90
52725;DHT22;38621;52.830;6.914;2023-05-17T00:26:01;9.20;99.90
52725;DHT22;38621;52.830;6.914;2023-05-17T00:28:26;9.20;99.90
52725;DHT22;38621;52.830;6.914;2023-05-17T00:30:52;9.10;99.90
52725;DHT22;38621;52.830;6.914;2023-05-17T00:33:18;9.10;99.90
52725;DHT22;38621;52.830;6.914;2023-05-17T00:35:43;9.00;99.90
52725;DHT22;38621;52.830;6.914;2023-05-17T00:38:09;9.00;99.90
52725;DHT22;38621;52.830;6.914;2023-05-17T00:40:35;8.90;99.90
52725;DHT22;38621;52.830;6.914;2023-05-17T00:43:00;8.90;99.90
52725;DHT22;38621;52.830;6.914;2023-05-17T00:45:26;8.80;99.90
52725;DHT22;38621;52.830;6.914;2023-05-17T00:47:52;8.70;99.90
52725;DHT22;38621;52.830;6.914;2023-05-17T00:50:17;8.70;99.90
52725;DHT22;38621;52.830;6.914;2023-05-17T00:52:43;8.60;99.90
52725;DHT22;38621;52.830;6.914;2023-05-17T00:55:09;8.50;99.90
52725;DHT22;38621;52.830;6.914;2023-05-17T00:57:35;8.50;99.90
52725;DHT22;38621;52.830;6.914;2023-05-17T01:00:01;8.50;99.90
52725;DHT22;38621;52.830;6.914;2023-05-17T01:02:27;8.40;99.90
52725;DHT22;38621;52.830;6.914;2023-05-17T01:04:53;8.30;99.90
52725;DHT22;38621;52.830;6.914;2023-05-17T01:07:18;8.30;99.90
52725;DHT22;38621;52.830;6.914;2023-05-17T01:09:44;8.20;99.90
52725;DHT22;38621;52.830;6.914;2023-05-17T01:15:07;8.20;99.90
52725;DHT22;38621;52.830;6.914;2023-05-17T01:18:26;8.20;99.90
52725;DHT22;38621;52.830;6.914;2023-05-17T01:20:37;8.10;99.90
52725;DHT22;38621;52.830;6.914;2023-05-17T01:23:09;8.10;99.90
52725;DHT22;38621;52.830;6.914;2023-05-17T01:28:26;7.90;99.90
52725;DHT22;38621;52.830;6.914;2023-05-17T01:30:54;7.80;99.90
52725;DHT22;38621;52.830;6.914;2023-05-17T01:33:22;7.80;99.90
52725;DHT22;38621;52.830;6.914;2023-05-17T01:35:47;7.70;99.90
52725;DHT22;38621;52.830;6.914;2023-05-17T01:38:13;7.60;99.90
52725;DHT22;38621;52.830;6.914;2023-05-17T01:40:47;7.60;99.90
52725;DHT22;38621;52.830;6.914;2023-05-17T01:43:23;7.60;99.90
52725;DHT22;38621;52.830;6.914;2023-05-17T01:48:36;7.50;99.90
52725;DHT22;38621;52.830;6.914;2023-05-17T01:51:04;7.40;99.90
52725;DHT22;38621;52.830;6.914;2023-05-17T01:53:37;7.40;99.90
52725;DHT22;38621;52.830;6.914;2023-05-17T01:56:15;7.30;99.90
52725;DHT22;38621;52.830;6.914;2023-05-17T01:58:45;7.30;99.90
52725;DHT22;38621;52.830;6.914;2023-05-17T02:01:17;7.30;99.90
52725;DHT22;38621;52.830;6.914;2023-05-17T02:03:46;7.20;99.90
52725;DHT22;38621;52.830;6.914;2023-05-17T02:06:12;7.20;99.90
52725;DHT22;38621;52.830;6.914;2023-05-17T02:08:37;7.20;99.90
52725;DHT22;38621;52.830;6.914;2023-05-17T02:11:03;7.30;99.90
52725;DHT22;38621;52.830;6.914;2023-05-17T02:13:29;7.30;99.90
52725;DHT22;38621;52.830;6.914;2023-05-17T02:15:54;7.30;99.90
52725;DHT22;38621;52.830;6.914;2023-05-17T02:18:24;7.30;99.90
52725;DHT22;38621;52.830;6.914;2023-05-17T02:20:51;7.30;99.90
52725;DHT22;38621;52.830;6.914;2023-05-17T02:23:16;7.40;99.90
52725;DHT22;38621;52.830;6.914;2023-05-17T02:25:42;7.30;99.90
52725;DHT22;38621;52.830;6.914;2023-05-17T02:28:08;7.30;99.90
52725;DHT22;38621;52.830;6.914;2023-05-17T02:30:36;7.30;99.90
52725;DHT22;38621;52.830;6.914;2023-05-17T02:33:05;7.30;99.90
52725;DHT22;38621;52.830;6.914;2023-05-17T02:35:31;7.20;99.90
52725;DHT22;38621;52.830;6.914;2023-05-17T02:37:57;7.20;99.90
52725;DHT22;38621;52.830;6.914;2023-05-17T02:40:22;7.10;99.90
52725;DHT22;38621;52.830;6.914;2023-05-17T02:42:48;7.10;99.90
52725;DHT22;38621;52.830;6.914;2023-05-17T02:45:14;7.10;99.90
52725;DHT22;38621;52.830;6.914;2023-05-17T02:47:39;7.00;99.90
52725;DHT22;38621;52.830;6.914;2023-05-17T02:50:05;7.00;99.90
52725;DHT22;38621;52.830;6.914;2023-05-17T02:52:31;7.00;99.90
52725;DHT22;38621;52.830;6.914;2023-05-17T02:54:57;7.00;99.90
52725;DHT22;38621;52.830;6.914;2023-05-17T02:57:22;7.00;99.90
52725;DHT22;38621;52.830;6.914;2023-05-17T02:59:49;7.00;99.90
52725;DHT22;38621;52.830;6.914;2023-05-17T03:02:14;7.00;99.90
52725;DHT22;38621;52.830;6.914;2023-05-17T03:04:40;6.90;99.90
52725;DHT22;38621;52.830;6.914;2023-05-17T03:07:06;6.90;99.90
52725;DHT22;38621;52.830;6.914;2023-05-17T03:09:32;6.90;99.90
52725;DHT22;38621;52.830;6.914;2023-05-17T03:11:57;6.80;99.90
52725;DHT22;38621;52.830;6.914;2023-05-17T03:14:23;6.70;99.90
52725;DHT22;38621;52.830;6.914;2023-05-17T03:16:49;6.70;99.90
52725;DHT22;38621;52.830;6.914;2023-05-17T03:19:15;6.70;99.90
52725;DHT22;38621;52.830;6.914;2023-05-17T03:21:40;6.60;99.90
52725;DHT22;38621;52.830;6.914;2023-05-17T03:24:09;6.50;99.90
52725;DHT22;38621;52.830;6.914;2023-05-17T03:26:35;6.50;99.90
52725;DHT22;38621;52.830;6.914;2023-05-17T03:29:00;6.40;99.90
52725;DHT22;38621;52.830;6.914;2023-05-17T03:31:26;6.40;99.90
52725;DHT22;38621;52.830;6.914;2023-05-17T03:33:52;6.40;99.90
52725;DHT22;38621;52.830;6.914;2023-05-17T03:36:17;6.30;99.90
52725;DHT22;38621;52.830;6.914;2023-05-17T03:38:43;6.30;99.90
52725;DHT22;38621;52.830;6.914;2023-05-17T03:41:09;6.30;99.90
52725;DHT22;38621;52.830;6.914;2023-05-17T03:43:35;6.30;99.90
52725;DHT22;38621;52.830;6.914;2023-05-17T03:46:01;6.40;99.90
52725;DHT22;38621;52.830;6.914;2023-05-17T03:48:26;6.50;99.90
52725;DHT22;38621;52.830;6.914;2023-05-17T03:50:52;6.50;99.90
52725;DHT22;38621;52.830;6.914;2023-05-17T03:53:18;6.60;99.90
52725;DHT22;38621;52.830;6.914;2023-05-17T03:55:43;6.60;99.90
52725;DHT22;38621;52.830;6.914;2023-05-17T03:58:10;6.70;99.90
52725;DHT22;38621;52.830;6.914;2023-05-17T04:00:35;6.90;99.90
52725;DHT22;38621;52.830;6.914;2023-05-17T04:03:01;6.90;99.90
52725;DHT22;38621;52.830;6.914;2023-05-17T04:05:27;7.00;99.90
52725;DHT22;38621;52.830;6.914;2023-05-17T04:07:53;7.00;99.90
52725;DHT22;38621;52.830;6.914;2023-05-17T04:10:18;7.00;99.90
52725;DHT22;38621;52.830;6.914;2023-05-17T04:12:44;7.20;99.90
52725;DHT22;38621;52.830;6.914;2023-05-17T04:15:10;7.20;99.90
52725;DHT22;38621;52.830;6.914;2023-05-17T04:17:36;7.30;99.90
52725;DHT22;38621;52.830;6.914;2023-05-17T04:20:03;7.30;99.90
52725;DHT22;38621;52.830;6.914;2023-05-17T04:22:31;7.40;99.90
52725;DHT22;38621;52.830;6.914;2023-05-17T04:24:57;7.40;99.90
52725;DHT22;38621;52.830;6.914;2023-05-17T04:27:22;7.40;99.90
52725;DHT22;38621;52.830;6.914;2023-05-17T04:29:48;7.40;99.90
52725;DHT22;38621;52.830;6.914;2023-05-17T04:32:14;7.50;99.90
52725;DHT22;38621;52.830;6.914;2023-05-17T04:34:40;7.50;99.90
52725;DHT22;38621;52.830;6.914;2023-05-17T04:37:05;7.50;99.90
52725;DHT22;38621;52.830;6.914;2023-05-17T04:39:31;7.60;99.90
52725;DHT22;38621;52.830;6.914;2023-05-17T04:41:57;7.60;99.90
52725;DHT22;38621;52.830;6.914;2023-05-17T04:44:23;7.70;99.90
52725;DHT22;38621;52.830;6.914;2023-05-17T04:46:48;7.70;99.90
52725;DHT22;38621;52.830;6.914;2023-05-17T04:49:14;7.80;99.90
52725;DHT22;38621;52.830;6.914;2023-05-17T04:51:40;7.80;99.90
52725;DHT22;38621;52.830;6.914;2023-05-17T04:54:06;7.80;99.90
52725;DHT22;38621;52.830;6.914;2023-05-17T04:56:34;7.90;99.90
52725;DHT22;38621;52.830;6.914;2023-05-17T04:59:01;7.80;99.90
52725;DHT22;38621;52.830;6.914;2023-05-17T05:01:27;7.90;99.90
52725;DHT22;38621;52.830;6.914;2023-05-17T05:03:56;8.00;99.90
52725;DHT22;38621;52.830;6.914;2023-05-17T05:06:22;8.00;99.90
52725;DHT22;38621;52.830;6.914;2023-05-17T05:08:47;8.00;99.90
52725;DHT22;38621;52.830;6.914;2023-05-17T05:11:13;8.00;99.90
52725;DHT22;38621;52.830;6.914;2023-05-17T05:13:39;8.00;99.90
52725;DHT22;38621;52.830;6.914;2023-05-17T05:16:06;8.00;99.90
52725;DHT22;38621;52.830;6.914;2023-05-17T05:18:32;8.10;99.90
52725;DHT22;38621;52.830;6.914;2023-05-17T05:20:58;8.10;99.90
52725;DHT22;38621;52.830;6.914;2023-05-17T05:23:24;8.20;99.90
52725;DHT22;38621;52.830;6.914;2023-05-17T05:25:50;8.20;99.90
52725;DHT22;38621;52.830;6.914;2023-05-17T05:28:15;8.30;99.90
52725;DHT22;38621;52.830;6.914;2023-05-17T05:30:41;8.40;99.90
52725;DHT22;38621;52.830;6.914;2023-05-17T05:33:07;8.50;99.90
52725;DHT22;38621;52.830;6.914;2023-05-17T05:35:32;8.60;99.90
52725;DHT22;38621;52.830;6.914;2023-05-17T05:37:58;8.60;99.90
52725;DHT22;38621;52.830;6.914;2023-05-17T05:40:24;8.70;99.90
52725;DHT22;38621;52.830;6.914;2023-05-17T05:42:50;8.80;99.90
52725;DHT22;38621;52.830;6.914;2023-05-17T05:45:17;8.80;99.90
52725;DHT22;38621;52.830;6.914;2023-05-17T05:47:43;8.90;99.90
52725;DHT22;38621;52.830;6.914;2023-05-17T05:50:09;8.90;99.90
52725;DHT22;38621;52.830;6.914;2023-05-17T05:52:35;9.00;99.90
52725;DHT22;38621;52.830;6.914;2023-05-17T05:55:01;9.00;99.90
52725;DHT22;38621;52.830;6.914;2023-05-17T05:57:26;9.20;99.90
52725;DHT22;38621;52.830;6.914;2023-05-17T05:59:52;9.30;99.90
52725;DHT22;38621;52.830;6.914;2023-05-17T06:02:18;9.30;99.90
52725;DHT22;38621;52.830;6.914;2023-05-17T06:04:45;9.30;99.90
52725;DHT22;38621;52.830;6.914;2023-05-17T06:07:12;9.30;99.90
52725;DHT22;38621;52.830;6.914;2023-05-17T06:09:38;9.30;99.90
52725;DHT22;38621;52.830;6.914;2023-05-17T06:12:04;9.20;99.90
52725;DHT22;38621;52.830;6.914;2023-05-17T06:14:29;9.30;99.90
52725;DHT22;38621;52.830;6.914;2023-05-17T06:16:55;9.30;99.90
52725;DHT22;38621;52.830;6.914;2023-05-17T06:19:21;9.40;99.90
52725;DHT22;38621;52.830;6.914;2023-05-17T06:21:46;9.40;99.90
52725;DHT22;38621;52.830;6.914;2023-05-17T06:24:12;9.50;99.90
52725;DHT22;38621;52.830;6.914;2023-05-17T06:26:38;9.60;99.90
52725;DHT22;38621;52.830;6.914;2023-05-17T06:29:05;9.70;99.90
52725;DHT22;38621;52.830;6.914;2023-05-17T06:31:30;9.80;99.90
52725;DHT22;38621;52.830;6.914;2023-05-17T06:33:56;9.90;99.90
52725;DHT22;38621;52.830;6.914;2023-05-17T06:36:22;10.00;99.90
52725;DHT22;38621;52.830;6.914;2023-05-17T06:38:48;10.00;99.90
52725;DHT22;38621;52.830;6.914;2023-05-17T06:41:13;10.00;99.90
52725;DHT22;38621;52.830;6.914;2023-05-17T06:43:39;10.10;99.90
52725;DHT22;38621;52.830;6.914;2023-05-17T06:46:05;10.10;99.90
52725;DHT22;38621;52.830;6.914;2023-05-17T06:48:30;10.10;99.90
52725;DHT22;38621;52.830;6.914;2023-05-17T06:50:56;10.10;99.90
52725;DHT22;38621;52.830;6.914;2023-05-17T06:53:22;10.10;99.90
52725;DHT22;38621;52.830;6.914;2023-05-17T06:55:47;10.10;99.90
52725;DHT22;38621;52.830;6.914;2023-05-17T06:58:13;10.10;99.90
52725;DHT22;38621;52.830;6.914;2023-05-17T07:00:39;10.00;99.90
52725;DHT22;38621;52.830;6.914;2023-05-17T07:03:04;10.00;99.90
52725;DHT22;38621;52.830;6.914;2023-05-17T07:05:30;10.00;99.90
52725;DHT22;38621;52.830;6.914;2023-05-17T07:07:57;10.00;99.90
52725;DHT22;38621;52.830;6.914;2023-05-17T07:10:23;10.10;99.90
52725;DHT22;38621;52.830;6.914;2023-05-17T07:12:48;10.30;99.90
52725;DHT22;38621;52.830;6.914;2023-05-17T07:15:14;10.50;99.90
52725;DHT22;38621;52.830;6.914;2023-05-17T07:17:40;10.60;99.90
52725;DHT22;38621;52.830;6.914;2023-05-17T07:20:06;10.70;99.90
52725;DHT22;38621;52.830;6.914;2023-05-17T07:22:32;10.80;99.90
52725;DHT22;38621;52.830;6.914;2023-05-17T07:24:58;10.90;99.90
52725;DHT22;38621;52.830;6.914;2023-05-17T07:27:23;10.80;99.90
52725;DHT22;38621;52.830;6.914;2023-05-17T07:29:49;10.80;99.90
52725;DHT22;38621;52.830;6.914;2023-05-17T07:32:15;10.80;99.90
52725;DHT22;38621;52.830;6.914;2023-05-17T07:34:42;10.70;99.90
52725;DHT22;38621;52.830;6.914;2023-05-17T07:37:08;10.70;99.90
52725;DHT22;38621;52.830;6.914;2023-05-17T07:39:33;10.60;99.90
52725;DHT22;38621;52.830;6.914;2023-05-17T07:41:59;10.60;99.90
52725;DHT22;38621;52.830;6.914;2023-05-17T07:44:25;10.60;99.90
52725;DHT22;38621;52.830;6.914;2023-05-17T07:46:51;10.70;99.90
52725;DHT22;38621;52.830;6.914;2023-05-17T07:49:16;10.80;99.90
52725;DHT22;38621;52.830;6.914;2023-05-17T07:51:42;10.90;99.90
52725;DHT22;38621;52.830;6.914;2023-05-17T07:54:08;10.90;99.90
52725;DHT22;38621;52.830;6.914;2023-05-17T07:56:34;10.90;99.90
52725;DHT22;38621;52.830;6.914;2023-05-17T07:59:00;10.90;99.90
52725;DHT22;38621;52.830;6.914;2023-05-17T08:01:25;11.00;99.90
52725;DHT22;38621;52.830;6.914;2023-05-17T08:03:52;11.00;99.90
52725;DHT22;38621;52.830;6.914;2023-05-17T08:06:18;11.00;99.90
52725;DHT22;38621;52.830;6.914;2023-05-17T08:08:44;11.10;99.90
52725;DHT22;38621;52.830;6.914;2023-05-17T08:11:11;11.10;99.90
52725;DHT22;38621;52.830;6.914;2023-05-17T08:13:37;11.10;99.90
52725;DHT22;38621;52.830;6.914;2023-05-17T08:16:02;11.20;99.90
52725;DHT22;38621;52.830;6.914;2023-05-17T08:18:32;11.20;99.90
52725;DHT22;38621;52.830;6.914;2023-05-17T08:20:58;11.20;99.90
52725;DHT22;38621;52.830;6.914;2023-05-17T08:23:24;11.20;99.90
52725;DHT22;38621;52.830;6.914;2023-05-17T08:25:51;11.20;99.90
52725;DHT22;38621;52.830;6.914;2023-05-17T08:28:17;11.20;99.90
52725;DHT22;38621;52.830;6.914;2023-05-17T08:30:43;11.20;99.90
52725;DHT22;38621;52.830;6.914;2023-05-17T08:33:09;11.30;99.90
52725;DHT22;38621;52.830;6.914;2023-05-17T08:35:35;11.30;99.90
52725;DHT22;38621;52.830;6.914;2023-05-17T08:38:01;11.30;99.90
52725;DHT22;38621;52.830;6.914;2023-05-17T08:40:27;11.40;99.90
52725;DHT22;38621;52.830;6.914;2023-05-17T08:42:53;11.50;99.90
52725;DHT22;38621;52.830;6.914;2023-05-17T08:45:18;11.60;99.90
52725;DHT22;38621;52.830;6.914;2023-05-17T08:47:45;11.60;99.90
52725;DHT22;38621;52.830;6.914;2023-05-17T08:50:11;11.60;99.90
52725;DHT22;38621;52.830;6.914;2023-05-17T08:52:39;11.80;99.90
52725;DHT22;38621;52.830;6.914;2023-05-17T08:55:06;12.00;99.90
52725;DHT22;38621;52.830;6.914;2023-05-17T08:57:34;12.10;99.90
52725;DHT22;38621;52.830;6.914;2023-05-17T09:00:03;12.30;99.90
52725;DHT22;38621;52.830;6.914;2023-05-17T09:02:37;12.30;99.90
52725;DHT22;38621;52.830;6.914;2023-05-17T09:05:05;12.30;99.90
52725;DHT22;38621;52.830;6.914;2023-05-17T09:07:31;12.40;99.90
52725;DHT22;38621;52.830;6.914;2023-05-17T09:09:57;12.60;99.90
52725;DHT22;38621;52.830;6.914;2023-05-17T09:12:23;12.70;99.90
52725;DHT22;38621;52.830;6.914;2023-05-17T09:14:49;12.80;99.90
52725;DHT22;38621;52.830;6.914;2023-05-17T09:17:20;13.00;99.90
52725;DHT22;38621;52.830;6.914;2023-05-17T09:19:47;13.00;99.90
52725;DHT22;38621;52.830;6.914;2023-05-17T09:22:13;13.00;99.90
52725;DHT22;38621;52.830;6.914;2023-05-17T09:24:41;13.00;99.90
52725;DHT22;38621;52.830;6.914;2023-05-17T09:27:07;13.00;99.90
52725;DHT22;38621;52.830;6.914;2023-05-17T09:29:34;12.80;99.90
52725;DHT22;38621;52.830;6.914;2023-05-17T09:32:13;12.80;99.90
52725;DHT22;38621;52.830;6.914;2023-05-17T09:34:40;12.80;99.90
52725;DHT22;38621;52.830;6.914;2023-05-17T09:37:12;12.80;99.90
52725;DHT22;38621;52.830;6.914;2023-05-17T09:39:39;12.90;99.90
52725;DHT22;38621;52.830;6.914;2023-05-17T09:42:05;12.90;99.90
52725;DHT22;38621;52.830;6.914;2023-05-17T09:44:31;12.90;99.90
52725;DHT22;38621;52.830;6.914;2023-05-17T09:46:57;13.00;99.90
52725;DHT22;38621;52.830;6.914;2023-05-17T09:49:26;13.10;99.90
52725;DHT22;38621;52.830;6.914;2023-05-17T09:51:54;13.10;99.90
52725;DHT22;38621;52.830;6.914;2023-05-17T09:54:19;13.10;99.90
52725;DHT22;38621;52.830;6.914;2023-05-17T09:56:52;13.00;99.90
52725;DHT22;38621;52.830;6.914;2023-05-17T09:59:19;12.90;99.90
52725;DHT22;38621;52.830;6.914;2023-05-17T10:01:46;12.70;99.90
52725;DHT22;38621;52.830;6.914;2023-05-17T10:04:15;12.70;99.90
52725;DHT22;38621;52.830;6.914;2023-05-17T10:06:45;12.80;99.90
52725;DHT22;38621;52.830;6.914;2023-05-17T10:09:12;13.30;99.90
52725;DHT22;38621;52.830;6.914;2023-05-17T10:11:39;13.50;99.90
52725;DHT22;38621;52.830;6.914;2023-05-17T10:14:25;13.50;99.90
52725;DHT22;38621;52.830;6.914;2023-05-17T10:16:53;13.30;99.90
52725;DHT22;38621;52.830;6.914;2023-05-17T10:19:19;13.10;99.90
52725;DHT22;38621;52.830;6.914;2023-05-17T10:21:47;13.00;99.90
52725;DHT22;38621;52.830;6.914;2023-05-17T10:24:12;13.00;99.90
52725;DHT22;38621;52.830;6.914;2023-05-17T10:26:39;13.20;99.90
52725;DHT22;38621;52.830;6.914;2023-05-17T10:29:05;13.60;99.90
52725;DHT22;38621;52.830;6.914;2023-05-17T10:31:32;13.90;99.90
52725;DHT22;38621;52.830;6.914;2023-05-17T10:34:03;14.00;99.90
52725;DHT22;38621;52.830;6.914;2023-05-17T10:36:31;14.00;99.90
52725;DHT22;38621;52.830;6.914;2023-05-17T10:38:58;14.00;99.90
52725;DHT22;38621;52.830;6.914;2023-05-17T10:41:27;14.00;99.90
52725;DHT22;38621;52.830;6.914;2023-05-17T10:43:55;14.10;99.90
52725;DHT22;38621;52.830;6.914;2023-05-17T10:46:22;14.40;99.90
52725;DHT22;38621;52.830;6.914;2023-05-17T10:48:52;14.80;99.90
52725;DHT22;38621;52.830;6.914;2023-05-17T10:51:23;15.10;99.90
52725;DHT22;38621;52.830;6.914;2023-05-17T10:54:06;15.20;99.90
52725;DHT22;38621;52.830;6.914;2023-05-17T10:56:33;15.00;99.90
52725;DHT22;38621;52.830;6.914;2023-05-17T11:01:59;15.50;99.90
52725;DHT22;38621;52.830;6.914;2023-05-17T11:10:15;15.10;99.90
52725;DHT22;38621;52.830;6.914;2023-05-17T11:12:46;14.70;99.90
52725;DHT22;38621;52.830;6.914;2023-05-17T11:15:22;14.70;99.90
52725;DHT22;38621;52.830;6.914;2023-05-17T11:17:50;14.80;99.90
52725;DHT22;38621;52.830;6.914;2023-05-17T11:23:06;14.50;99.90
52725;DHT22;38621;52.830;6.914;2023-05-17T11:25:36;14.50;99.90
52725;DHT22;38621;52.830;6.914;2023-05-17T11:28:19;14.70;99.90
52725;DHT22;38621;52.830;6.914;2023-05-17T11:30:45;15.00;99.90
52725;DHT22;38621;52.830;6.914;2023-05-17T11:33:18;15.20;99.90
52725;DHT22;38621;52.830;6.914;2023-05-17T11:35:46;15.10;99.90
52725;DHT22;38621;52.830;6.914;2023-05-17T11:38:22;14.90;99.90
52725;DHT22;38621;52.830;6.914;2023-05-17T11:40:56;14.90;99.90
52725;DHT22;38621;52.830;6.914;2023-05-17T11:43:25;15.00;99.90
52725;DHT22;38621;52.830;6.914;2023-05-17T11:45:57;15.20;99.90
52725;DHT22;38621;52.830;6.914;2023-05-17T11:48:25;15.20;99.90
52725;DHT22;38621;52.830;6.914;2023-05-17T11:50:54;15.20;99.90
52725;DHT22;38621;52.830;6.914;2023-05-17T11:53:20;15.20;99.90
52725;DHT22;38621;52.830;6.914;2023-05-17T11:55:48;15.10;99.90
52725;DHT22;38621;52.830;6.914;2023-05-17T11:58:20;15.00;99.90
52725;DHT22;38621;52.830;6.914;2023-05-17T12:00:52;15.10;99.90
52725;DHT22;38621;52.830;6.914;2023-05-17T12:03:22;15.40;99.90
52725;DHT22;38621;52.830;6.914;2023-05-17T12:06:11;15.50;99.90
52725;DHT22;38621;52.830;6.914;2023-05-17T12:08:38;15.40;99.90
52725;DHT22;38621;52.830;6.914;2023-05-17T12:11:06;15.30;99.90
52725;DHT22;38621;52.830;6.914;2023-05-17T12:13:33;15.10;99.90
52725;DHT22;38621;52.830;6.914;2023-05-17T12:16:06;15.30;99.90
52725;DHT22;38621;52.830;6.914;2023-05-17T12:18:35;15.80;99.90
52725;DHT22;38621;52.830;6.914;2023-05-17T12:21:02;16.20;99.90
52725;DHT22;38621;52.830;6.914;2023-05-17T12:23:35;16.10;99.90
52725;DHT22;38621;52.830;6.914;2023-05-17T12:26:05;16.00;99.90
52725;DHT22;38621;52.830;6.914;2023-05-17T12:28:32;15.90;99.90
52725;DHT22;38621;52.830;6.914;2023-05-17T12:30:58;16.20;99.90
52725;DHT22;38621;52.830;6.914;2023-05-17T12:33:31;16.60;99.90
52725;DHT22;38621;52.830;6.914;2023-05-17T12:35:59;16.80;99.90
52725;DHT22;38621;52.830;6.914;2023-05-17T12:38:26;17.00;99.90
52725;DHT22;38621;52.830;6.914;2023-05-17T12:40:59;17.10;99.90
52725;DHT22;38621;52.830;6.914;2023-05-17T12:43:25;16.90;99.90
52725;DHT22;38621;52.830;6.914;2023-05-17T12:45:51;16.80;99.90
52725;DHT22;38621;52.830;6.914;2023-05-17T12:48:17;17.00;99.90
52725;DHT22;38621;52.830;6.914;2023-05-17T12:50:43;17.00;99.90
52725;DHT22;38621;52.830;6.914;2023-05-17T12:53:10;17.00;99.90
52725;DHT22;38621;52.830;6.914;2023-05-17T12:55:37;17.30;99.90
52725;DHT22;38621;52.830;6.914;2023-05-17T12:58:02;17.80;99.90
52725;DHT22;38621;52.830;6.914;2023-05-17T13:00:29;17.80;99.90
52725;DHT22;38621;52.830;6.914;2023-05-17T13:02:55;17.60;99.90
52725;DHT22;38621;52.830;6.914;2023-05-17T13:05:21;17.50;99.90
52725;DHT22;38621;52.830;6.914;2023-05-17T13:07:47;17.30;99.90
52725;DHT22;38621;52.830;6.914;2023-05-17T13:10:24;17.10;99.90
52725;DHT22;38621;52.830;6.914;2023-05-17T13:12:59;17.10;99.90
52725;DHT22;38621;52.830;6.914;2023-05-17T13:15:32;16.90;99.90
52725;DHT22;38621;52.830;6.914;2023-05-17T13:17:59;16.80;99.90
52725;DHT22;38621;52.830;6.914;2023-05-17T13:20:25;16.80;99.90
52725;DHT22;38621;52.830;6.914;2023-05-17T13:22:52;16.80;99.90
52725;DHT22;38621;52.830;6.914;2023-05-17T13:25:18;16.40;99.90
52725;DHT22;38621;52.830;6.914;2023-05-17T13:27:45;16.30;99.90
52725;DHT22;38621;52.830;6.914;2023-05-17T13:30:14;16.20;99.90
52725;DHT22;38621;52.830;6.914;2023-05-17T13:32:41;16.10;99.90
52725;DHT22;38621;52.830;6.914;2023-05-17T13:35:07;16.30;99.90
52725;DHT22;38621;52.830;6.914;2023-05-17T13:37:34;16.80;99.90
52725;DHT22;38621;52.830;6.914;2023-05-17T13:40:00;17.40;99.90
52725;DHT22;38621;52.830;6.914;2023-05-17T13:42:26;17.40;99.90
52725;DHT22;38621;52.830;6.914;2023-05-17T13:44:52;17.00;99.90
52725;DHT22;38621;52.830;6.914;2023-05-17T13:47:17;16.70;99.90
52725;DHT22;38621;52.830;6.914;2023-05-17T13:49:43;16.80;99.90
52725;DHT22;38621;52.830;6.914;2023-05-17T13:52:09;16.80;99.90
52725;DHT22;38621;52.830;6.914;2023-05-17T13:54:37;16.90;99.90
52725;DHT22;38621;52.830;6.914;2023-05-17T13:57:04;17.50;99.90
52725;DHT22;38621;52.830;6.914;2023-05-17T13:59:29;18.30;99.90
52725;DHT22;38621;52.830;6.914;2023-05-17T14:01:55;18.70;99.90
52725;DHT22;38621;52.830;6.914;2023-05-17T14:04:22;18.90;99.90
52725;DHT22;38621;52.830;6.914;2023-05-17T14:06:48;18.20;99.90
52725;DHT22;38621;52.830;6.914;2023-05-17T14:09:14;17.50;99.90
52725;DHT22;38621;52.830;6.914;2023-05-17T14:11:39;17.00;99.90
52725;DHT22;38621;52.830;6.914;2023-05-17T14:14:05;16.90;99.90
52725;DHT22;38621;52.830;6.914;2023-05-17T14:16:31;16.90;99.90
52725;DHT22;38621;52.830;6.914;2023-05-17T14:18:57;16.90;99.90
52725;DHT22;38621;52.830;6.914;2023-05-17T14:21:22;16.70;99.90
52725;DHT22;38621;52.830;6.914;2023-05-17T14:23:48;16.50;99.90
52725;DHT22;38621;52.830;6.914;2023-05-17T14:26:14;16.10;99.90
52725;DHT22;38621;52.830;6.914;2023-05-17T14:28:40;16.00;99.90
52725;DHT22;38621;52.830;6.914;2023-05-17T14:31:06;16.50;99.90
52725;DHT22;38621;52.830;6.914;2023-05-17T14:33:31;16.80;99.90
52725;DHT22;38621;52.830;6.914;2023-05-17T14:35:57;16.70;99.90
52725;DHT22;38621;52.830;6.914;2023-05-17T14:38:23;16.70;99.90
52725;DHT22;38621;52.830;6.914;2023-05-17T14:40:48;16.70;99.90
52725;DHT22;38621;52.830;6.914;2023-05-17T14:43:14;16.50;99.90
52725;DHT22;38621;52.830;6.914;2023-05-17T14:45:41;16.90;99.90
52725;DHT22;38621;52.830;6.914;2023-05-17T14:48:06;17.70;99.90
52725;DHT22;38621;52.830;6.914;2023-05-17T14:50:33;18.60;99.90
52725;DHT22;38621;52.830;6.914;2023-05-17T14:52:59;19.20;99.90
52725;DHT22;38621;52.830;6.914;2023-05-17T14:55:24;19.70;99.90
52725;DHT22;38621;52.830;6.914;2023-05-17T14:57:55;20.10;99.90
52725;DHT22;38621;52.830;6.914;2023-05-17T15:00:22;20.20;99.90
52725;DHT22;38621;52.830;6.914;2023-05-17T15:02:49;19.70;99.90
52725;DHT22;38621;52.830;6.914;2023-05-17T15:05:15;19.40;99.90
52725;DHT22;38621;52.830;6.914;2023-05-17T15:07:42;19.00;99.90
52725;DHT22;38621;52.830;6.914;2023-05-17T15:10:08;18.30;99.90
52725;DHT22;38621;52.830;6.914;2023-05-17T15:12:35;17.90;99.90
52725;DHT22;38621;52.830;6.914;2023-05-17T15:15:02;17.40;99.90
52725;DHT22;38621;52.830;6.914;2023-05-17T15:17:28;17.00;99.90
52725;DHT22;38621;52.830;6.914;2023-05-17T15:19:53;16.70;99.90
52725;DHT22;38621;52.830;6.914;2023-05-17T15:22:19;17.30;99.90
52725;DHT22;38621;52.830;6.914;2023-05-17T15:24:45;18.40;99.90
52725;DHT22;38621;52.830;6.914;2023-05-17T15:27:11;19.40;99.90
52725;DHT22;38621;52.830;6.914;2023-05-17T15:29:42;20.10;99.90
52725;DHT22;38621;52.830;6.914;2023-05-17T15:32:08;20.10;99.90
52725;DHT22;38621;52.830;6.914;2023-05-17T15:34:34;19.30;99.90
52725;DHT22;38621;52.830;6.914;2023-05-17T15:37:00;18.60;99.90
52725;DHT22;38621;52.830;6.914;2023-05-17T15:39:26;18.80;99.90
52725;DHT22;38621;52.830;6.914;2023-05-17T15:41:52;18.50;99.90
52725;DHT22;38621;52.830;6.914;2023-05-17T15:44:18;18.00;99.90
52725;DHT22;38621;52.830;6.914;2023-05-17T15:46:44;18.30;99.90
52725;DHT22;38621;52.830;6.914;2023-05-17T15:49:09;19.20;99.90
52725;DHT22;38621;52.830;6.914;2023-05-17T15:51:35;19.80;99.90
52725;DHT22;38621;52.830;6.914;2023-05-17T15:54:01;20.20;99.90
52725;DHT22;38621;52.830;6.914;2023-05-17T15:56:27;20.70;99.90